createdAt,value
2023-08-28T00:00:56.149Z,0.00
2023-08-28T00:05:56.089Z,0.00
2023-08-28T00:10:56.036Z,0.00
2023-08-28T00:15:55.949Z,0.00
2023-08-28T00:20:55.878Z,0.00
2023-08-28T00:25:55.894Z,0.00
2023-08-28T00:30:55.761Z,0.00
2023-08-28T00:35:55.752Z,0.00
2023-08-28T00:40:55.634Z,0.00
2023-08-28T00:45:55.613Z,0.00
2023-08-28T00:50:55.502Z,0.00
2023-08-28T00:55:55.481Z,0.00
2023-08-28T01:00:55.355Z,0.00
2023-08-28T01:05:55.293Z,0.00
2023-08-28T01:10:55.242Z,0.00
2023-08-28T01:15:55.178Z,0.00
2023-08-28T01:20:55.083Z,0.00
2023-08-28T01:25:55.044Z,0.00
2023-08-28T01:30:55.008Z,0.00
2023-08-28T01:35:54.918Z,0.00
2023-08-28T01:40:54.840Z,0.00
2023-08-28T01:45:54.808Z,0.00
2023-08-28T01:50:54.704Z,0.00
2023-08-28T01:55:54.618Z,0.00
2023-08-28T02:00:54.561Z,0.00
2023-08-28T02:05:54.620Z,0.00
2023-08-28T02:10:54.424Z,0.00
2023-08-28T02:15:54.412Z,0.00
2023-08-28T02:20:54.301Z,0.00
2023-08-28T02:25:54.260Z,0.00
2023-08-28T02:30:54.305Z,0.00
2023-08-28T02:35:54.105Z,0.00
2023-08-28T02:40:54.035Z,0.00
2023-08-28T02:45:54.049Z,0.00
2023-08-28T02:50:53.940Z,0.00
2023-08-28T02:55:53.857Z,0.00
2023-08-28T03:00:53.802Z,0.00
2023-08-28T03:05:53.716Z,0.00
2023-08-28T03:10:53.632Z,0.00
2023-08-28T03:15:53.739Z,0.00
2023-08-28T03:20:53.592Z,0.00
2023-08-28T03:25:53.447Z,0.00
2023-08-28T03:30:53.356Z,0.00
2023-08-28T03:35:53.317Z,0.00
2023-08-28T03:40:53.247Z,0.00
2023-08-28T03:45:53.895Z,0.00
2023-08-28T03:50:53.132Z,0.00
2023-08-28T03:55:53.065Z,0.00
2023-08-28T04:00:53.123Z,0.00
2023-08-28T04:05:52.885Z,0.00
2023-08-28T04:10:52.803Z,5.62
2023-08-28T04:15:52.803Z,11.25
2023-08-28T04:20:52.692Z,11.25
2023-08-28T04:25:52.649Z,16.88
2023-08-28T04:30:52.580Z,22.50
2023-08-28T04:35:52.549Z,28.12
2023-08-28T04:40:52.985Z,33.75
2023-08-28T04:45:52.452Z,50.62
2023-08-28T04:50:52.310Z,73.12
2023-08-28T04:55:52.273Z,84.38
2023-08-28T05:00:52.199Z,78.75
2023-08-28T05:05:52.188Z,73.12
2023-08-28T05:10:52.033Z,84.38
2023-08-28T05:15:52.698Z,106.88
2023-08-28T05:20:51.897Z,135.00
2023-08-28T05:25:51.825Z,118.12
2023-08-28T05:30:51.760Z,84.38
2023-08-28T05:35:51.693Z,112.50
2023-08-28T05:40:51.645Z,157.50
2023-08-28T05:45:51.623Z,163.12
2023-08-28T05:50:51.624Z,157.50
2023-08-28T05:55:51.503Z,163.12
2023-08-28T06:00:51.454Z,157.50
2023-08-28T06:05:51.318Z,146.25
2023-08-28T06:10:51.289Z,135.00
2023-08-28T06:15:51.218Z,123.75
2023-08-28T06:20:51.142Z,118.12
2023-08-28T06:25:51.149Z,106.88
2023-08-28T06:30:50.997Z,118.12
2023-08-28T06:35:50.936Z,157.50
2023-08-28T06:40:50.837Z,185.62
2023-08-28T06:45:50.797Z,202.50
2023-08-28T06:50:50.701Z,196.88
2023-08-28T06:55:50.679Z,185.62
2023-08-28T07:00:50.711Z,185.62
2023-08-28T07:05:50.549Z,202.50
2023-08-28T07:10:50.462Z,219.38
2023-08-28T07:15:50.440Z,236.25
2023-08-28T07:20:50.321Z,219.38
2023-08-28T07:25:50.305Z,219.38
2023-08-28T07:30:50.204Z,247.50
2023-08-28T07:35:50.504Z,253.12
2023-08-28T07:40:50.080Z,241.88
2023-08-28T07:45:49.997Z,247.50
2023-08-28T07:50:49.926Z,253.12
2023-08-28T07:55:50.166Z,247.50
2023-08-28T08:00:52.457Z,258.75
2023-08-28T08:05:49.735Z,275.62
2023-08-28T08:10:49.674Z,275.62
2023-08-28T08:15:49.611Z,281.25
2023-08-28T08:20:49.522Z,286.88
2023-08-28T08:25:49.476Z,286.88
2023-08-28T08:30:49.372Z,348.75
2023-08-28T08:35:49.317Z,393.75
2023-08-28T08:40:49.241Z,427.50
2023-08-28T08:45:49.201Z,360.00
2023-08-28T08:50:49.172Z,376.88
2023-08-28T08:55:49.081Z,405.00
2023-08-28T09:00:48.993Z,444.38
2023-08-28T09:05:48.927Z,348.75
2023-08-28T09:10:49.014Z,309.38
2023-08-28T09:15:48.883Z,292.50
2023-08-28T09:20:48.744Z,275.62
2023-08-28T09:25:48.722Z,253.12
2023-08-28T09:30:48.608Z,247.50
2023-08-28T09:35:48.580Z,275.62
2023-08-28T09:40:48.492Z,331.88
2023-08-28T09:45:48.414Z,331.88
2023-08-28T09:50:48.371Z,303.75
2023-08-28T09:55:48.282Z,298.12
2023-08-28T10:00:48.215Z,298.12
2023-08-28T10:05:48.184Z,275.62
2023-08-28T10:10:48.094Z,241.88
2023-08-28T10:15:48.002Z,208.12
2023-08-28T10:20:47.982Z,202.50
2023-08-28T10:25:47.904Z,191.25
2023-08-28T10:30:47.898Z,202.50
2023-08-28T10:35:47.814Z,208.12
2023-08-28T10:40:47.730Z,219.38
2023-08-28T10:45:47.684Z,191.25
2023-08-28T10:50:47.557Z,168.75
2023-08-28T10:55:47.501Z,163.12
2023-08-28T11:00:47.467Z,135.00
2023-08-28T11:05:47.394Z,123.75
2023-08-28T11:10:47.313Z,123.75
2023-08-28T11:15:47.242Z,146.25
2023-08-28T11:20:47.154Z,157.50
2023-08-28T11:25:47.095Z,135.00
2023-08-28T11:30:47.094Z,151.88
2023-08-28T11:35:47.033Z,135.00
2023-08-28T11:40:47.013Z,112.50
2023-08-28T11:45:46.867Z,112.50
2023-08-28T11:50:46.782Z,118.12
2023-08-28T11:55:46.751Z,106.88
2023-08-28T12:00:46.631Z,95.62
2023-08-28T12:05:46.575Z,67.50
2023-08-28T12:10:46.507Z,84.38
2023-08-28T12:15:46.441Z,118.12
2023-08-28T12:20:46.391Z,168.75
2023-08-28T12:25:46.303Z,196.88
2023-08-28T12:30:46.306Z,247.50
2023-08-28T12:35:46.288Z,337.50
2023-08-28T12:40:46.169Z,360.00
2023-08-28T12:45:46.141Z,337.50
2023-08-28T12:50:46.032Z,286.88
2023-08-28T12:55:45.928Z,270.00
2023-08-28T13:00:45.906Z,253.12
2023-08-28T13:05:45.812Z,202.50
2023-08-28T13:10:45.738Z,180.00
2023-08-28T13:15:45.668Z,196.88
2023-08-28T13:20:45.615Z,247.50
2023-08-28T13:25:45.549Z,275.62
2023-08-28T13:30:45.466Z,281.25
2023-08-28T13:35:45.410Z,303.75
2023-08-28T13:40:45.390Z,331.88
2023-08-28T13:45:45.358Z,376.88
2023-08-28T13:50:45.237Z,399.38
2023-08-28T13:55:45.180Z,348.75
2023-08-28T14:00:45.091Z,343.12
2023-08-28T14:05:45.625Z,270.00
2023-08-28T14:10:44.964Z,241.88
2023-08-28T14:15:45.084Z,196.88
2023-08-28T14:20:44.821Z,185.62
2023-08-28T14:25:44.769Z,236.25
2023-08-28T14:30:44.695Z,309.38
2023-08-28T14:35:44.695Z,320.62
2023-08-28T14:40:48.113Z,286.88
2023-08-28T14:45:44.531Z,281.25
2023-08-28T14:50:44.436Z,270.00
2023-08-28T14:55:44.456Z,253.12
2023-08-28T15:00:44.336Z,225.00
2023-08-28T15:05:44.274Z,208.12
2023-08-28T15:10:44.188Z,163.12
2023-08-28T15:15:44.171Z,180.00
2023-08-28T15:20:44.042Z,151.88
2023-08-28T15:25:43.981Z,140.62
2023-08-28T15:30:43.964Z,118.12
2023-08-28T15:35:43.906Z,112.50
2023-08-28T15:40:43.824Z,123.75
2023-08-28T15:45:43.707Z,151.88
2023-08-28T15:50:43.621Z,135.00
2023-08-28T15:55:43.572Z,112.50
2023-08-28T16:00:43.551Z,95.62
2023-08-28T16:05:43.433Z,90.00
2023-08-28T16:10:43.808Z,84.38
2023-08-28T16:15:43.334Z,73.12
2023-08-28T16:20:43.228Z,67.50
2023-08-28T16:25:43.149Z,61.88
2023-08-28T16:30:43.195Z,56.25
2023-08-28T16:35:43.072Z,50.62
2023-08-28T16:40:42.980Z,39.38
2023-08-28T16:45:42.901Z,28.12
2023-08-28T16:50:42.819Z,22.50
2023-08-28T16:55:42.755Z,22.50
2023-08-28T17:00:42.706Z,16.88
2023-08-28T17:05:42.640Z,16.88
2023-08-28T17:10:42.547Z,16.88
2023-08-28T17:15:42.510Z,11.25
2023-08-28T17:20:42.423Z,11.25
2023-08-28T17:25:42.402Z,11.25
2023-08-28T17:30:42.292Z,11.25
2023-08-28T17:35:42.238Z,5.62
2023-08-28T17:40:42.150Z,5.62
2023-08-28T17:45:42.188Z,0.00
2023-08-28T17:50:42.036Z,0.00
2023-08-28T17:55:42.014Z,0.00
2023-08-28T18:00:41.871Z,0.00
2023-08-28T18:05:41.843Z,0.00
2023-08-28T18:10:41.754Z,0.00
2023-08-28T18:15:41.805Z,0.00
2023-08-28T18:20:41.663Z,0.00
2023-08-28T18:25:41.597Z,0.00
2023-08-28T18:30:41.532Z,0.00
2023-08-28T18:35:41.481Z,0.00
2023-08-28T18:40:43.741Z,0.00
2023-08-28T18:45:42.022Z,0.00
2023-08-28T18:50:41.285Z,0.00
2023-08-28T18:55:41.311Z,0.00
2023-08-28T19:00:41.580Z,0.00
2023-08-28T19:05:41.154Z,0.00
2023-08-28T19:10:42.614Z,0.00
2023-08-28T19:15:44.554Z,0.00
2023-08-28T19:20:50.692Z,0.00
2023-08-28T19:25:42.710Z,0.00
2023-08-28T19:30:45.032Z,0.00
2023-08-28T19:35:40.857Z,0.00
2023-08-28T19:40:40.661Z,0.00
2023-08-28T19:45:40.523Z,0.00
2023-08-28T19:50:40.728Z,0.00
2023-08-28T19:55:40.919Z,0.00
2023-08-28T20:00:40.294Z,0.00
2023-08-28T20:05:40.239Z,0.00
2023-08-28T20:10:40.154Z,0.00
2023-08-28T20:15:40.130Z,0.00
2023-08-28T20:20:40.077Z,0.00
2023-08-28T20:25:39.977Z,0.00
2023-08-28T20:30:39.941Z,0.00
2023-08-28T20:35:39.870Z,0.00
2023-08-28T20:40:39.792Z,0.00
2023-08-28T20:45:39.741Z,0.00
2023-08-28T20:50:39.635Z,0.00
2023-08-28T20:55:39.577Z,0.00
2023-08-28T21:00:39.665Z,0.00
2023-08-28T21:05:39.459Z,0.00
2023-08-28T21:10:39.537Z,0.00
2023-08-28T21:15:39.386Z,0.00
2023-08-28T21:20:39.251Z,0.00
2023-08-28T21:25:39.188Z,0.00
2023-08-28T21:30:39.117Z,0.00
2023-08-28T21:35:39.051Z,0.00
2023-08-28T21:40:39.035Z,0.00
2023-08-28T21:45:38.935Z,0.00
2023-08-28T21:50:38.827Z,0.00
2023-08-28T21:55:38.752Z,0.00
2023-08-28T22:00:38.742Z,0.00
2023-08-28T22:05:38.635Z,0.00
2023-08-28T22:10:38.625Z,0.00
2023-08-28T22:15:38.484Z,0.00
2023-08-28T22:20:38.483Z,0.00
2023-08-28T22:25:38.534Z,0.00
2023-08-28T22:30:38.293Z,0.00
2023-08-28T22:35:38.219Z,0.00
2023-08-28T22:40:38.146Z,0.00
2023-08-28T22:45:38.098Z,0.00
2023-08-28T22:50:38.035Z,0.00
2023-08-28T22:55:37.955Z,0.00
2023-08-28T23:00:37.876Z,0.00
2023-08-28T23:05:38.311Z,0.00
2023-08-28T23:10:37.748Z,0.00
2023-08-28T23:15:37.649Z,0.00
2023-08-28T23:20:37.582Z,0.00
2023-08-28T23:25:37.505Z,0.00
2023-08-28T23:30:37.504Z,0.00
2023-08-28T23:35:37.397Z,0.00
2023-08-28T23:40:37.356Z,0.00
2023-08-28T23:45:37.278Z,0.00
2023-08-28T23:50:37.224Z,0.00
2023-08-28T23:55:37.142Z,0.00
